Time;durP1;ratioP1;P1;durP2;ratioP2;P2;SDS_P1;SDS_P2;PMS_P1;PMS_P2;Temp;Humidity;BMP_temperature;BMP_pressure;BME280_temperature;BME280_humidity;BME280_pressure;Samples;Min_cycle;Max_cycle;Signal;HPM_P1;HPM_P2
2022/09/22 00:01:04;;;;;;;12.85;3.13;;;19.10;99.90;;;;;;5030276;28;20668;-78
2022/09/22 00:03:35;;;;;;;14.98;2.67;;;19.20;99.90;;;;;;5030256;28;20283;-78
2022/09/22 00:06:08;;;;;;;11.63;2.25;;;19.20;99.90;;;;;;5030263;28;20835;-78
2022/09/22 00:08:40;;;;;;;13.00;2.35;;;19.10;99.90;;;;;;5035487;28;20238;-78
2022/09/22 00:11:15;;;;;;;12.30;2.10;;;19.10;99.90;;;;;;5043317;28;20198;-78
2022/09/22 00:13:49;;;;;;;18.33;2.65;;;19.20;99.90;;;;;;5029466;28;20641;-79
2022/09/22 00:16:24;;;;;;;16.95;2.85;;;19.30;99.90;;;;;;5044507;28;20198;-78
2022/09/22 00:18:55;;;;;;;18.08;3.03;;;19.40;99.90;;;;;;5030429;28;20642;-78
2022/09/22 00:21:27;;;;;;;15.40;2.55;;;19.50;99.90;;;;;;5030136;28;20208;-78
2022/09/22 00:23:58;;;;;;;12.60;2.30;;;19.80;99.90;;;;;;5035850;28;20299;-78
2022/09/22 00:26:30;;;;;;;14.32;2.50;;;19.90;99.90;;;;;;5046580;28;20304;-78
2022/09/22 00:29:02;;;;;;;14.32;2.38;;;20.10;99.90;;;;;;5043281;28;20232;-78
2022/09/22 00:31:37;;;;;;;11.95;2.60;;;20.20;99.90;;;;;;5024688;28;20679;-78
2022/09/22 00:34:08;;;;;;;16.08;2.22;;;20.30;99.90;;;;;;5026565;28;20203;-80
2022/09/22 00:36:40;;;;;;;13.07;2.38;;;20.50;99.90;;;;;;5033032;28;20208;-77
2022/09/22 00:39:10;;;;;;;13.57;2.67;;;20.60;99.90;;;;;;5046293;28;20609;-79
2022/09/22 00:41:44;;;;;;;10.13;2.10;;;20.60;99.90;;;;;;5041446;28;20193;-79
2022/09/22 00:44:37;;;;;;;14.50;2.95;;;20.60;99.90;;;;;;5042586;28;20571;-79
2022/09/22 00:47:37;;;;;;;16.20;2.55;;;20.50;99.90;;;;;;5048143;28;20251;-78
2022/09/22 00:50:14;;;;;;;15.50;2.80;;;20.40;99.90;;;;;;5047243;28;20213;-78
2022/09/22 00:52:53;;;;;;;13.95;2.17;;;20.50;99.90;;;;;;5051917;28;20311;-79
2022/09/22 00:55:27;;;;;;;15.60;3.08;;;20.40;99.90;;;;;;5052008;28;20216;-79
2022/09/22 00:58:01;;;;;;;10.68;2.30;;;20.50;99.90;;;;;;5033835;28;20248;-78
2022/09/22 01:00:32;;;;;;;10.15;1.77;;;20.50;99.90;;;;;;5039874;28;20192;-79
2022/09/22 01:03:08;;;;;;;11.02;2.10;;;20.60;99.90;;;;;;5042329;28;20201;-79
2022/09/22 01:05:41;;;;;;;14.23;2.63;;;20.50;99.90;;;;;;5048634;28;20676;-79
2022/09/22 01:08:13;;;;;;;13.05;2.28;;;20.50;99.90;;;;;;5049691;28;20223;-79
2022/09/22 01:10:44;;;;;;;12.73;2.33;;;20.40;99.90;;;;;;5038129;28;20208;-79
2022/09/22 01:13:32;;;;;;;15.13;2.72;;;20.50;99.90;;;;;;5041924;28;20201;-78
2022/09/22 01:16:22;;;;;;;12.30;2.20;;;20.40;99.90;;;;;;5050870;28;20679;-79
2022/09/22 01:19:13;;;;;;;10.32;2.10;;;20.50;99.90;;;;;;5050156;28;20292;-79
2022/09/22 01:21:50;;;;;;;9.32;2.00;;;20.40;99.90;;;;;;5028260;28;20309;-81
2022/09/22 01:24:49;;;;;;;11.88;1.90;;;20.40;99.90;;;;;;5028996;28;20219;-80
2022/09/22 01:27:50;;;;;;;10.13;2.03;;;20.30;99.90;;;;;;5028335;28;20212;-80
2022/09/22 01:30:29;;;;;;;8.82;2.17;;;20.40;99.90;;;;;;5026389;28;20211;-80
2022/09/22 01:33:16;;;;;;;11.32;2.30;;;20.20;99.90;;;;;;5027582;28;21153;-80
2022/09/22 01:35:58;;;;;;;12.48;1.95;;;20.20;99.90;;;;;;5028230;28;20227;-80
2022/09/22 01:38:34;;;;;;;12.73;2.30;;;20.20;99.90;;;;;;5032770;28;20501;-80
2022/09/22 01:41:09;;;;;;;9.57;2.13;;;20.00;99.90;;;;;;5027056;28;20277;-80
2022/09/22 01:43:46;;;;;;;10.18;2.10;;;20.00;99.90;;;;;;5026988;28;20197;-80
2022/09/22 01:46:25;;;;;;;9.43;2.03;;;20.10;99.90;;;;;;5027371;28;20280;-80
2022/09/22 01:48:59;;;;;;;9.00;1.98;;;20.10;99.90;;;;;;5028548;28;20236;-79
2022/09/22 01:51:33;;;;;;;11.07;1.98;;;20.10;99.90;;;;;;5028219;28;20222;-80
2022/09/22 01:54:07;;;;;;;12.98;2.70;;;20.00;99.90;;;;;;5027173;28;20244;-80
2022/09/22 01:56:42;;;;;;;7.55;1.70;;;20.00;99.90;;;;;;5029872;28;20316;-80
2022/09/22 01:59:16;;;;;;;13.02;2.40;;;19.90;99.90;;;;;;5028270;28;20301;-80
2022/09/22 02:01:51;;;;;;;11.43;1.70;;;20.00;99.90;;;;;;5027717;28;21157;-80
2022/09/22 02:04:31;;;;;;;8.85;1.83;;;20.00;99.90;;;;;;5026620;28;20691;-80
2022/09/22 02:07:04;;;;;;;7.60;1.42;;;20.10;99.90;;;;;;5027574;28;20199;-80
2022/09/22 02:09:40;;;;;;;7.93;1.75;;;20.10;99.90;;;;;;5027739;28;20223;-79
2022/09/22 02:12:12;;;;;;;6.05;1.40;;;20.20;99.90;;;;;;5026648;28;20230;-79
2022/09/22 02:14:43;;;;;;;5.50;1.40;;;20.40;99.90;;;;;;5026668;28;20211;-79
2022/09/22 02:17:16;;;;;;;5.53;1.60;;;20.50;99.90;;;;;;5026780;28;20200;-78
2022/09/22 02:19:47;;;;;;;7.80;1.55;;;20.50;99.90;;;;;;5026649;28;20224;-78
2022/09/22 02:22:18;;;;;;;4.72;1.45;;;20.50;99.90;;;;;;5027061;28;20201;-77
2022/09/22 02:24:49;;;;;;;3.30;1.33;;;20.30;99.90;;;;;;5026434;28;20562;-77
2022/09/22 02:27:25;;;;;;;5.65;1.45;;;20.30;99.90;;;;;;5027263;28;20224;-77
2022/09/22 02:29:59;;;;;;;4.65;1.20;;;20.30;99.90;;;;;;5027000;28;20381;-77
2022/09/22 02:32:34;;;;;;;5.15;1.38;;;20.40;99.90;;;;;;5027175;28;20209;-78
2022/09/22 02:35:05;;;;;;;6.43;1.55;;;20.60;99.90;;;;;;5026608;28;20210;-78
2022/09/22 02:37:41;;;;;;;3.40;1.23;;;20.60;99.90;;;;;;5030605;28;20227;-77
2022/09/22 02:40:20;;;;;;;6.82;1.42;;;20.70;99.90;;;;;;5027258;28;22196;-78
2022/09/22 02:42:57;;;;;;;3.55;1.10;;;20.70;99.90;;;;;;5026635;28;20204;-77
2022/09/22 02:45:32;;;;;;;5.88;1.65;;;20.70;99.90;;;;;;5025354;28;20269;-77
2022/09/22 02:48:12;;;;;;;7.38;1.67;;;20.60;99.90;;;;;;5023924;28;20193;-76
2022/09/22 02:50:47;;;;;;;6.93;1.58;;;20.30;99.90;;;;;;5023106;28;21084;-77
2022/09/22 02:53:19;;;;;;;5.38;1.63;;;20.20;99.90;;;;;;5023190;28;20235;-78
2022/09/22 02:55:53;;;;;;;8.50;2.05;;;20.20;99.90;;;;;;5022489;28;20219;-79
2022/09/22 02:58:24;;;;;;;7.13;1.90;;;20.30;99.90;;;;;;5026096;28;20205;-79
2022/09/22 03:00:55;;;;;;;8.88;1.70;;;20.10;99.90;;;;;;5024760;28;20231;-79
2022/09/22 03:03:27;;;;;;;11.63;1.90;;;20.10;99.90;;;;;;5024514;28;20854;-79
2022/09/22 03:06:00;;;;;;;9.75;1.98;;;20.10;99.90;;;;;;5025605;28;20288;-79
2022/09/22 03:08:30;;;;;;;8.02;1.83;;;20.20;99.90;;;;;;5024182;28;20224;-79
2022/09/22 03:11:01;;;;;;;5.40;1.58;;;20.10;99.90;;;;;;5024408;28;20196;-76
2022/09/22 03:13:34;;;;;;;7.80;1.65;;;20.20;99.90;;;;;;5023617;28;20553;-79
2022/09/22 03:16:05;;;;;;;6.10;2.03;;;20.30;99.90;;;;;;5023898;28;20690;-78
2022/09/22 03:18:40;;;;;;;9.05;1.90;;;20.40;99.90;;;;;;5024780;28;20200;-79
2022/09/22 03:21:11;;;;;;;8.70;1.95;;;20.40;99.90;;;;;;5027093;28;20204;-78
2022/09/22 03:23:42;;;;;;;5.47;1.60;;;20.50;99.90;;;;;;5026189;28;20201;-79
2022/09/22 03:26:13;;;;;;;5.35;1.52;;;20.50;99.90;;;;;;5023109;28;20207;-80
2022/09/22 03:28:44;;;;;;;7.25;1.90;;;20.50;99.90;;;;;;5025033;28;20248;-80
2022/09/22 03:31:18;;;;;;;8.18;1.83;;;20.50;99.90;;;;;;5024214;28;20679;-78
2022/09/22 03:33:51;;;;;;;9.57;2.00;;;20.40;99.90;;;;;;5027225;28;21818;-79
2022/09/22 03:36:22;;;;;;;6.85;1.92;;;20.40;99.90;;;;;;5025354;28;20772;-79
2022/09/22 03:38:52;;;;;;;10.85;2.13;;;20.50;99.90;;;;;;5028361;28;20201;-79
2022/09/22 03:41:25;;;;;;;10.10;2.05;;;20.40;99.90;;;;;;5033511;28;20279;-79
2022/09/22 03:43:56;;;;;;;6.30;2.15;;;20.40;99.90;;;;;;5047913;28;20203;-80
2022/09/22 03:46:27;;;;;;;8.00;2.13;;;20.40;99.90;;;;;;5042176;28;20221;-79
2022/09/22 03:48:59;;;;;;;7.05;1.92;;;20.40;99.90;;;;;;5034272;28;20270;-78
2022/09/22 03:51:30;;;;;;;8.90;2.00;;;20.40;99.90;;;;;;5046160;28;20219;-79
2022/09/22 03:54:01;;;;;;;8.75;1.70;;;20.30;99.90;;;;;;5040003;28;20246;-79
2022/09/22 03:56:31;;;;;;;5.25;1.80;;;20.20;99.90;;;;;;5023841;28;20200;-80
2022/09/22 03:59:02;;;;;;;8.52;1.85;;;20.20;99.90;;;;;;5023871;28;20200;-78
2022/09/22 04:01:33;;;;;;;10.70;2.08;;;20.10;99.90;;;;;;5024951;28;20305;-80
2022/09/22 04:04:39;;;;;;;5.35;1.70;;;20.00;99.90;;;;;;5041228;28;20200;-81
2022/09/22 04:07:14;;;;;;;6.10;1.50;;;19.90;99.90;;;;;;5038757;28;20842;-80
2022/09/22 04:09:48;;;;;;;7.38;2.08;;;19.90;99.90;;;;;;5036865;28;20323;-81
2022/09/22 04:12:21;;;;;;;9.65;2.10;;;19.90;99.90;;;;;;5035978;28;20971;-80
2022/09/22 04:14:52;;;;;;;7.78;1.95;;;19.90;99.90;;;;;;5036096;28;20236;-79
2022/09/22 04:17:24;;;;;;;9.43;1.70;;;19.90;99.90;;;;;;5041823;28;20217;-79
2022/09/22 04:19:58;;;;;;;6.88;1.63;;;19.80;99.90;;;;;;5044414;28;20655;-79
2022/09/22 04:22:29;;;;;;;10.23;2.17;;;19.90;99.90;;;;;;5038685;28;20557;-78
2022/09/22 04:25:15;;;;;;;9.20;2.28;;;20.00;99.90;;;;;;5050597;28;20698;-82
2022/09/22 04:27:46;;;;;;;8.85;2.08;;;19.90;99.90;;;;;;5052095;28;20189;-77
2022/09/22 04:30:17;;;;;;;6.03;1.60;;;19.90;99.90;;;;;;5047932;28;20216;-78
2022/09/22 04:32:51;;;;;;;6.60;1.80;;;19.90;99.90;;;;;;5047054;28;20764;-77
2022/09/22 04:35:24;;;;;;;7.97;1.90;;;19.90;99.90;;;;;;5050132;28;20217;-77
2022/09/22 04:37:54;;;;;;;7.75;1.63;;;19.90;99.90;;;;;;5048486;28;20223;-77
2022/09/22 04:40:26;;;;;;;8.73;1.73;;;19.70;99.90;;;;;;5049954;28;20223;-76
2022/09/22 04:42:56;;;;;;;9.15;2.35;;;19.70;99.90;;;;;;5049772;28;20638;-76
2022/09/22 04:45:28;;;;;;;8.30;2.00;;;19.70;99.90;;;;;;5052151;28;20192;-77
2022/09/22 04:47:59;;;;;;;9.93;1.90;;;19.70;99.90;;;;;;5053789;28;20243;-78
2022/09/22 04:50:31;;;;;;;6.40;1.65;;;19.70;99.90;;;;;;5037527;28;20363;-79
2022/09/22 04:53:08;;;;;;;9.05;1.88;;;19.70;99.90;;;;;;5034133;28;20279;-77
2022/09/22 04:55:41;;;;;;;11.85;1.92;;;19.80;99.90;;;;;;5015642;28;20190;-76
2022/09/22 04:58:23;;;;;;;9.82;2.03;;;19.90;99.90;;;;;;5032096;28;20275;-76
2022/09/22 05:00:54;;;;;;;7.07;1.60;;;19.80;99.90;;;;;;5031258;28;20197;-76
2022/09/22 05:03:30;;;;;;;6.35;1.83;;;20.00;99.90;;;;;;5034094;28;20706;-76
2022/09/22 05:06:07;;;;;;;8.00;1.80;;;20.00;99.90;;;;;;5033335;28;20193;-77
2022/09/22 05:08:38;;;;;;;10.80;2.08;;;20.00;99.90;;;;;;5036774;28;20197;-76
2022/09/22 05:11:09;;;;;;;7.65;1.73;;;20.00;99.90;;;;;;5056256;28;20238;-76
2022/09/22 05:13:43;;;;;;;7.22;2.05;;;20.00;99.90;;;;;;5057231;28;20207;-77
2022/09/22 05:16:17;;;;;;;8.75;1.65;;;19.90;99.90;;;;;;5054897;28;20262;-75
2022/09/22 05:18:49;;;;;;;8.68;1.80;;;19.80;99.90;;;;;;5055645;28;20192;-76
2022/09/22 05:21:22;;;;;;;13.43;2.03;;;19.80;99.90;;;;;;5055339;28;20203;-76
2022/09/22 05:23:55;;;;;;;7.97;1.80;;;19.80;99.90;;;;;;5046675;28;20664;-79
2022/09/22 05:26:26;;;;;;;9.05;1.85;;;19.90;99.90;;;;;;5046905;28;20220;-76
2022/09/22 05:28:57;;;;;;;8.38;1.60;;;19.90;99.90;;;;;;5059754;28;20200;-76
2022/09/22 05:31:28;;;;;;;7.68;1.90;;;19.80;99.90;;;;;;5061364;28;20205;-76
2022/09/22 05:33:59;;;;;;;7.47;1.90;;;19.80;99.90;;;;;;5060699;28;20201;-77
2022/09/22 05:36:36;;;;;;;8.18;1.98;;;19.80;99.90;;;;;;5059932;28;20196;-78
2022/09/22 05:39:07;;;;;;;7.70;1.92;;;19.80;99.90;;;;;;5057424;28;20223;-78
2022/09/22 05:41:38;;;;;;;9.50;1.70;;;19.80;99.90;;;;;;5041851;28;20206;-74
2022/09/22 05:44:13;;;;;;;7.38;1.45;;;19.80;99.90;;;;;;5038809;28;20534;-76
2022/09/22 05:46:45;;;;;;;4.82;1.50;;;19.70;99.90;;;;;;5056389;28;20191;-77
2022/09/22 05:49:18;;;;;;;7.05;1.90;;;19.70;99.90;;;;;;5057033;28;20224;-77
2022/09/22 05:51:51;;;;;;;8.77;1.63;;;19.80;99.90;;;;;;5056551;28;20288;-77
2022/09/22 05:54:21;;;;;;;8.20;1.80;;;19.80;99.90;;;;;;5052647;28;20192;-77
2022/09/22 05:56:52;;;;;;;11.48;1.95;;;19.80;99.90;;;;;;5052711;28;20217;-77
2022/09/22 05:59:23;;;;;;;5.25;1.38;;;19.80;99.90;;;;;;5050353;28;20322;-77
2022/09/22 06:01:54;;;;;;;8.65;1.90;;;19.70;99.90;;;;;;5052477;28;20675;-77
2022/09/22 06:04:25;;;;;;;7.68;1.80;;;19.50;99.90;;;;;;5049093;28;20243;-77
2022/09/22 06:06:58;;;;;;;12.00;2.00;;;19.50;99.90;;;;;;5032131;28;20289;-77
2022/09/22 06:09:28;;;;;;;7.30;1.60;;;19.40;99.90;;;;;;5032443;28;20636;-77
2022/09/22 06:12:01;;;;;;;6.13;1.75;;;19.30;99.90;;;;;;5032980;28;20203;-76
2022/09/22 06:14:31;;;;;;;10.77;2.00;;;19.20;99.90;;;;;;5037986;28;20211;-75
2022/09/22 06:17:09;;;;;;;6.53;1.80;;;19.20;99.90;;;;;;5052997;28;20295;-77
2022/09/22 06:19:48;;;;;;;8.80;1.95;;;19.20;99.90;;;;;;5054362;28;20211;-75
2022/09/22 06:22:23;;;;;;;5.70;1.58;;;19.20;99.90;;;;;;5055130;28;20257;-77
2022/09/22 06:24:53;;;;;;;7.43;1.40;;;19.20;99.90;;;;;;5041087;28;20678;-76
2022/09/22 06:27:29;;;;;;;6.88;1.63;;;19.10;99.90;;;;;;5053565;28;20209;-78
2022/09/22 06:30:00;;;;;;;6.63;1.67;;;19.20;99.90;;;;;;5054538;28;20303;-76
2022/09/22 06:32:32;;;;;;;6.90;1.90;;;19.20;99.90;;;;;;5040823;28;20212;-76
2022/09/22 06:35:06;;;;;;;8.60;1.60;;;19.20;99.90;;;;;;5044235;28;20192;-78
2022/09/22 06:37:42;;;;;;;6.30;1.63;;;19.10;99.90;;;;;;5053050;28;20199;-79
2022/09/22 06:40:40;;;;;;;8.07;1.67;;;19.10;99.90;;;;;;5054003;28;20192;-78
2022/09/22 06:43:16;;;;;;;6.50;1.75;;;19.10;99.90;;;;;;5010762;28;20208;-77
2022/09/22 06:45:47;;;;;;;9.10;1.75;;;19.10;99.90;;;;;;5053284;28;20254;-78
2022/09/22 06:48:18;;;;;;;10.90;1.73;;;19.10;99.90;;;;;;5049510;28;20239;-77
2022/09/22 06:50:52;;;;;;;8.05;1.70;;;19.10;99.90;;;;;;5031311;28;20236;-76
2022/09/22 06:53:25;;;;;;;6.80;1.65;;;19.00;99.90;;;;;;5046683;28;20234;-76
2022/09/22 06:55:57;;;;;;;7.18;1.77;;;19.00;99.90;;;;;;5051875;28;20717;-75
2022/09/22 06:58:30;;;;;;;7.05;1.67;;;19.00;99.90;;;;;;5052244;28;20227;-77
2022/09/22 07:01:05;;;;;;;7.07;1.60;;;19.00;99.90;;;;;;5051865;28;20204;-78
2022/09/22 07:03:39;;;;;;;8.57;1.60;;;19.00;99.90;;;;;;5043457;28;20220;-78
2022/09/22 07:06:12;;;;;;;8.32;2.05;;;19.00;99.90;;;;;;5031914;28;20292;-78
2022/09/22 07:08:45;;;;;;;5.60;1.50;;;19.00;99.90;;;;;;5036428;28;20204;-79
2022/09/22 07:11:22;;;;;;;9.52;2.03;;;19.00;99.90;;;;;;5051235;28;20221;-78
2022/09/22 07:13:54;;;;;;;6.55;1.88;;;19.00;99.90;;;;;;5050063;28;20215;-82
2022/09/22 07:16:26;;;;;;;8.20;1.60;;;19.00;99.90;;;;;;5051383;28;20193;-78
2022/09/22 07:18:58;;;;;;;9.35;1.70;;;19.00;99.90;;;;;;5050934;28;20216;-78
2022/09/22 07:21:34;;;;;;;9.68;1.88;;;19.00;99.90;;;;;;5047811;28;20246;-78
2022/09/22 07:24:09;;;;;;;7.82;1.83;;;19.00;99.90;;;;;;5041782;28;20295;-78
2022/09/22 07:26:41;;;;;;;8.93;2.00;;;19.00;99.90;;;;;;5049573;28;20220;-76
2022/09/22 07:29:15;;;;;;;8.63;1.90;;;19.00;99.90;;;;;;5049565;28;20585;-76
2022/09/22 07:31:46;;;;;;;8.57;2.00;;;18.90;99.90;;;;;;5049783;28;20264;-78
2022/09/22 07:34:17;;;;;;;8.45;2.10;;;19.00;99.90;;;;;;5051071;28;20204;-78
2022/09/22 07:36:48;;;;;;;10.80;2.03;;;19.00;99.90;;;;;;5050623;28;20213;-78
2022/09/22 07:39:20;;;;;;;9.65;2.63;;;19.00;99.90;;;;;;5047444;28;20211;-78
2022/09/22 07:41:51;;;;;;;12.93;3.35;;;19.00;99.90;;;;;;5041710;28;20756;-77
2022/09/22 07:47:08;;;;;;;11.63;2.33;;;19.00;99.90;;;;;;5050534;28;20200;-77
2022/09/22 07:49:39;;;;;;;9.38;1.90;;;19.00;99.90;;;;;;5050410;28;20192;-77
2022/09/22 07:52:10;;;;;;;9.63;1.98;;;18.90;99.90;;;;;;5049961;28;20251;-77
2022/09/22 07:54:43;;;;;;;10.55;2.58;;;18.90;99.90;;;;;;5050349;28;20314;-77
2022/09/22 07:57:14;;;;;;;9.05;2.00;;;18.80;99.90;;;;;;5026850;28;20212;-78
2022/09/22 07:59:44;;;;;;;7.53;2.00;;;18.70;99.90;;;;;;5024849;28;20295;-77
2022/09/22 08:02:15;;;;;;;7.85;1.80;;;18.60;99.90;;;;;;5033985;28;20209;-77
2022/09/22 08:04:46;;;;;;;7.68;1.60;;;18.50;99.90;;;;;;5040901;28;20197;-77
2022/09/22 08:07:17;;;;;;;4.68;1.10;;;18.50;99.90;;;;;;5049988;28;20254;-77
2022/09/22 08:09:49;;;;;;;5.10;1.27;;;18.40;99.90;;;;;;5050019;28;20201;-76
2022/09/22 08:12:20;;;;;;;3.55;1.10;;;18.40;99.90;;;;;;5050064;28;20197;-77
2022/09/22 08:14:52;;;;;;;5.20;1.38;;;18.30;99.90;;;;;;5018745;28;20202;-77
2022/09/22 08:17:23;;;;;;;4.63;1.10;;;18.20;99.90;;;;;;5028109;28;20251;-76
2022/09/22 08:19:54;;;;;;;3.80;0.95;;;18.20;99.90;;;;;;5050052;28;20207;-77
2022/09/22 08:22:25;;;;;;;2.38;0.80;;;18.10;99.90;;;;;;5049542;28;20682;-77
2022/09/22 08:24:58;;;;;;;3.28;1.10;;;18.10;99.90;;;;;;5049985;28;20197;-76
2022/09/22 08:27:28;;;;;;;5.03;1.35;;;18.10;99.90;;;;;;5049836;28;20219;-77
2022/09/22 08:29:59;;;;;;;3.97;1.02;;;18.10;99.90;;;;;;5048882;28;20196;-77
2022/09/22 08:32:30;;;;;;;4.60;1.20;;;18.00;99.90;;;;;;5010173;28;20208;-77
2022/09/22 08:35:03;;;;;;;3.88;1.15;;;18.00;99.90;;;;;;5044769;28;20228;-77
2022/09/22 08:37:36;;;;;;;3.20;1.17;;;18.00;99.90;;;;;;5055940;28;20262;-76
2022/09/22 08:40:15;;;;;;;6.13;1.30;;;18.00;99.90;;;;;;5050112;28;20249;-78
2022/09/22 08:42:46;;;;;;;4.00;1.50;;;18.00;99.90;;;;;;5036102;28;20196;-78
2022/09/22 08:45:28;;;;;;;7.40;1.75;;;18.00;99.90;;;;;;5022173;28;20190;-77
2022/09/22 08:53:44;;;;;;;7.47;1.45;;;18.00;99.90;;;;;;5030517;28;20236;-77
2022/09/22 08:56:29;;;;;;;4.63;1.23;;;17.90;99.90;;;;;;5034199;28;20197;-76
2022/09/22 08:59:07;;;;;;;3.42;0.88;;;17.90;99.90;;;;;;5033743;28;20200;-77
2022/09/22 09:01:54;;;;;;;5.45;1.00;;;17.90;99.90;;;;;;5046930;28;20196;-78
2022/09/22 09:04:55;;;;;;;3.33;1.20;;;17.90;99.90;;;;;;5049818;28;20201;-78
2022/09/22 09:07:36;;;;;;;2.88;1.23;;;17.90;99.90;;;;;;5033535;28;20688;-77
2022/09/22 09:10:22;;;;;;;5.15;1.35;;;17.90;99.90;;;;;;5042832;28;20201;-77
2022/09/22 09:13:11;;;;;;;2.63;1.15;;;17.90;99.90;;;;;;5053120;28;20197;-78
2022/09/22 09:15:58;;;;;;;3.28;1.10;;;17.90;99.90;;;;;;5053588;28;20227;-78
2022/09/22 09:18:35;;;;;;;2.22;1.15;;;17.90;99.90;;;;;;5056344;28;20568;-77
2022/09/22 09:21:09;;;;;;;7.45;1.30;;;17.90;99.90;;;;;;5050107;28;20201;-77
2022/09/22 09:23:45;;;;;;;3.30;1.00;;;17.90;99.90;;;;;;5049849;28;20286;-78
2022/09/22 09:26:19;;;;;;;4.00;1.20;;;17.90;99.90;;;;;;5052775;28;20238;-77
2022/09/22 09:28:55;;;;;;;4.72;1.20;;;17.90;99.90;;;;;;5050477;28;20216;-77
2022/09/22 09:31:31;;;;;;;4.18;0.98;;;17.90;99.90;;;;;;5032495;28;20224;-78
2022/09/22 09:34:04;;;;;;;3.80;0.90;;;17.90;99.90;;;;;;5033161;28;20197;-76
2022/09/22 09:36:38;;;;;;;4.35;1.33;;;18.00;99.90;;;;;;5032784;28;20193;-77
2022/09/22 09:39:15;;;;;;;4.47;1.40;;;18.00;99.90;;;;;;5042899;28;20201;-77
2022/09/22 09:41:47;;;;;;;4.00;1.10;;;18.00;99.90;;;;;;5045388;28;20703;-77
2022/09/22 09:44:25;;;;;;;4.85;1.38;;;18.00;99.90;;;;;;5051397;28;20273;-77
2022/09/22 09:47:04;;;;;;;7.22;1.58;;;18.10;99.90;;;;;;5037032;28;20211;-77
2022/09/22 09:49:36;;;;;;;6.40;1.45;;;18.00;99.90;;;;;;5037011;28;20208;-77
2022/09/22 09:52:12;;;;;;;5.13;1.40;;;18.00;99.90;;;;;;5052240;28;20236;-77
2022/09/22 09:54:45;;;;;;;5.40;1.48;;;18.10;99.90;;;;;;5051464;28;20208;-77
2022/09/22 09:57:16;;;;;;;4.78;1.77;;;18.00;99.90;;;;;;5033606;28;20201;-77
2022/09/22 10:02:39;;;;;;;7.22;1.67;;;18.00;99.90;;;;;;5042574;28;21147;-78
2022/09/22 10:05:25;;;;;;;5.43;1.88;;;18.00;99.90;;;;;;5043394;28;20205;-76
2022/09/22 10:07:59;;;;;;;5.93;1.80;;;18.00;99.90;;;;;;5031924;28;20213;-77
2022/09/22 10:10:40;;;;;;;6.28;1.60;;;18.10;99.90;;;;;;5040256;28;20206;-78
2022/09/22 10:13:40;;;;;;;4.55;1.45;;;18.00;99.90;;;;;;5033560;28;20213;-77
2022/09/22 10:16:24;;;;;;;7.28;1.85;;;18.00;99.90;;;;;;5042975;28;20196;-77
2022/09/22 10:19:06;;;;;;;7.20;1.90;;;18.00;99.90;;;;;;5044864;28;20199;-77
2022/09/22 10:21:37;;;;;;;9.02;1.95;;;18.00;99.90;;;;;;5034811;28;20280;-77
2022/09/22 10:24:29;;;;;;;4.80;1.73;;;18.00;99.90;;;;;;5043903;28;20209;-77
2022/09/22 10:27:00;;;;;;;4.43;1.75;;;18.00;99.90;;;;;;5051767;28;20217;-77
2022/09/22 10:29:30;;;;;;;6.72;1.85;;;18.10;99.90;;;;;;5047460;28;20200;-76
2022/09/22 10:32:16;;;;;;;6.90;2.05;;;18.00;99.90;;;;;;5051172;28;20752;-77
2022/09/22 10:34:48;;;;;;;7.10;2.03;;;18.10;99.90;;;;;;5051350;28;20196;-78
2022/09/22 10:37:21;;;;;;;4.30;1.63;;;18.10;99.90;;;;;;5042148;28;20215;-77
2022/09/22 10:40:15;;;;;;;6.53;2.10;;;18.10;99.90;;;;;;5049127;28;20305;-77
2022/09/22 10:42:50;;;;;;;5.45;1.85;;;18.10;99.90;;;;;;5047755;28;20772;-78
2022/09/22 10:45:36;;;;;;;3.88;1.60;;;18.10;99.90;;;;;;5063199;28;20224;-79
2022/09/22 10:48:14;;;;;;;4.85;1.33;;;18.10;99.90;;;;;;5049773;28;20215;-77
2022/09/22 10:51:06;;;;;;;5.07;1.58;;;18.00;99.90;;;;;;5040596;28;20575;-78
2022/09/22 10:53:58;;;;;;;4.55;1.60;;;17.90;99.90;;;;;;5051704;28;20237;-79
2022/09/22 10:56:35;;;;;;;5.60;1.70;;;17.80;99.90;;;;;;5051907;28;20220;-78
2022/09/22 10:59:33;;;;;;;4.55;1.23;;;17.80;99.90;;;;;;5047988;28;20650;-77
2022/09/22 11:02:44;;;;;;;5.40;1.45;;;17.80;99.90;;;;;;5054638;28;20213;-77
2022/09/22 11:14:34;;;;;;;2.15;1.00;;;17.70;99.90;;;;;;5051458;28;20252;-78
2022/09/22 11:17:23;;;;;;;4.97;1.63;;;17.70;99.90;;;;;;5043996;28;20220;-78
2022/09/22 11:20:31;;;;;;;2.97;1.10;;;17.70;99.90;;;;;;5038022;28;20699;-77
2022/09/22 11:23:31;;;;;;;4.22;1.50;;;17.70;99.90;;;;;;5040497;28;20201;-76
2022/09/22 11:26:29;;;;;;;4.85;1.45;;;17.70;99.90;;;;;;5037823;28;20589;-78
2022/09/22 11:29:26;;;;;;;3.53;1.60;;;17.70;99.90;;;;;;5053465;28;20213;-77
2022/09/22 11:32:06;;;;;;;4.88;1.33;;;17.70;99.90;;;;;;5050115;28;20346;-80
2022/09/22 11:34:56;;;;;;;6.20;1.58;;;17.70;99.90;;;;;;5054931;28;20255;-77
2022/09/22 11:37:44;;;;;;;4.65;1.40;;;17.60;99.90;;;;;;5051524;28;20284;-78
2022/09/22 11:40:39;;;;;;;3.72;1.40;;;17.60;99.90;;;;;;5036436;28;20288;-77
2022/09/22 11:43:28;;;;;;;5.40;1.63;;;17.50;99.90;;;;;;5038830;28;20209;-79
2022/09/22 11:46:06;;;;;;;5.05;1.65;;;17.50;99.90;;;;;;5036193;28;20330;-77
2022/09/22 11:48:52;;;;;;;4.65;1.30;;;17.40;99.90;;;;;;5033698;28;20207;-77
2022/09/22 11:51:48;;;;;;;7.00;1.67;;;17.40;99.90;;;;;;5033617;28;20229;-77
2022/09/22 11:54:33;;;;;;;5.53;1.50;;;17.50;99.90;;;;;;5034141;28;20332;-76
2022/09/22 11:57:11;;;;;;;7.38;1.60;;;17.40;99.90;;;;;;5045569;28;20201;-77
2022/09/22 11:59:45;;;;;;;3.60;1.48;;;17.50;99.90;;;;;;5045775;28;20303;-77
2022/09/22 12:02:25;;;;;;;3.92;1.55;;;17.40;99.90;;;;;;5044313;28;20243;-77
2022/09/22 12:05:01;;;;;;;2.83;1.35;;;17.40;99.90;;;;;;5038588;28;20220;-77
2022/09/22 12:07:35;;;;;;;4.82;1.50;;;17.40;99.90;;;;;;5044177;28;20628;-77
2022/09/22 12:10:17;;;;;;;3.80;1.40;;;17.40;99.90;;;;;;5041269;28;20238;-76
2022/09/22 12:12:50;;;;;;;4.78;1.55;;;17.50;99.90;;;;;;5035129;28;20236;-77
2022/09/22 12:15:29;;;;;;;3.38;1.35;;;17.40;99.90;;;;;;5030094;28;20597;-77
2022/09/22 12:18:09;;;;;;;4.80;1.65;;;17.50;99.90;;;;;;5042941;28;20192;-77
2022/09/22 12:20:54;;;;;;;5.38;1.42;;;17.40;99.90;;;;;;5049702;28;20595;-76
2022/09/22 12:23:49;;;;;;;3.10;1.10;;;17.40;99.90;;;;;;5049987;28;20205;-76
2022/09/22 12:26:29;;;;;;;8.48;1.50;;;17.40;99.90;;;;;;5050023;28;20214;-76
2022/09/22 12:29:04;;;;;;;3.60;1.30;;;17.40;99.90;;;;;;5041710;28;20235;-76
2022/09/22 12:31:39;;;;;;;3.92;1.33;;;17.40;99.90;;;;;;5036926;28;20239;-77
2022/09/22 12:34:19;;;;;;;4.65;1.23;;;17.40;99.90;;;;;;5034567;28;20212;-75
2022/09/22 12:36:52;;;;;;;4.35;1.30;;;17.50;99.90;;;;;;5029662;28;20201;-76
2022/09/22 12:39:26;;;;;;;4.57;1.50;;;17.50;99.90;;;;;;5029471;28;20197;-76
2022/09/22 12:42:01;;;;;;;4.22;1.60;;;17.50;99.90;;;;;;5038438;28;20274;-76
2022/09/22 12:44:37;;;;;;;3.78;1.65;;;17.50;99.90;;;;;;5049243;28;20196;-76
2022/09/22 12:47:18;;;;;;;6.05;1.85;;;17.40;99.90;;;;;;5033349;28;20201;-76
2022/09/22 12:49:57;;;;;;;4.28;1.50;;;17.50;99.90;;;;;;5029458;28;20201;-76
2022/09/22 12:53:02;;;;;;;5.00;1.45;;;17.50;99.90;;;;;;5029283;28;20272;-77
2022/09/22 12:55:41;;;;;;;5.53;1.70;;;17.40;99.90;;;;;;4987918;28;20203;-76
2022/09/22 12:58:41;;;;;;;5.05;1.90;;;17.40;99.90;;;;;;4988539;28;20209;-76
2022/09/22 13:01:36;;;;;;;6.05;1.45;;;17.50;99.90;;;;;;5025000;28;20570;-77
2022/09/22 13:04:19;;;;;;;4.82;1.35;;;17.40;99.90;;;;;;5039641;28;20206;-76
2022/09/22 13:06:59;;;;;;;4.60;1.23;;;17.40;99.90;;;;;;5049101;28;20201;-76
2022/09/22 13:09:31;;;;;;;5.65;1.20;;;17.40;99.90;;;;;;5049417;28;20192;-76
2022/09/22 13:12:25;;;;;;;4.35;1.17;;;17.40;99.90;;;;;;5049265;28;20227;-75
2022/09/22 13:15:20;;;;;;;3.67;1.52;;;17.40;99.90;;;;;;5047238;28;20197;-75
2022/09/22 13:17:56;;;;;;;5.25;1.50;;;17.40;99.90;;;;;;5039840;28;20275;-76
2022/09/22 13:20:31;;;;;;;4.13;1.50;;;17.40;99.90;;;;;;5048222;28;20590;-76
2022/09/22 13:23:14;;;;;;;4.65;1.40;;;17.50;99.90;;;;;;5049016;28;20216;-76
2022/09/22 13:25:45;;;;;;;6.30;1.75;;;17.40;99.90;;;;;;5049850;28;20549;-76
2022/09/22 13:28:17;;;;;;;4.28;1.52;;;17.40;99.90;;;;;;5040712;28;20190;-77
2022/09/22 13:30:49;;;;;;;6.22;1.85;;;17.40;99.90;;;;;;5034924;28;20189;-77
2022/09/22 13:33:26;;;;;;;5.10;1.60;;;17.50;99.90;;;;;;5050453;28;20284;-76
2022/09/22 13:36:07;;;;;;;4.65;1.50;;;17.40;99.90;;;;;;5051952;28;20196;-76
2022/09/22 13:38:41;;;;;;;7.45;2.08;;;17.40;99.90;;;;;;5036291;28;20205;-76
2022/09/22 13:41:17;;;;;;;4.90;1.75;;;17.40;99.90;;;;;;5052893;28;20635;-76
2022/09/22 13:43:51;;;;;;;3.88;1.50;;;17.40;99.90;;;;;;5044691;28;20280;-77
2022/09/22 13:46:26;;;;;;;5.47;1.70;;;17.40;99.90;;;;;;5032391;28;20208;-76
2022/09/22 13:49:00;;;;;;;2.88;1.35;;;17.40;99.90;;;;;;5047580;28;20569;-76
2022/09/22 13:51:31;;;;;;;6.15;1.77;;;17.40;99.90;;;;;;5051422;28;20329;-76
2022/09/22 13:54:02;;;;;;;3.22;1.40;;;17.30;99.90;;;;;;5051164;28;20228;-76